Aviation Digital Data Service (ADDS)

Output produced by METARs form (0658 UTC 24 March 2019)
found at http://www.aviationweather.gov/metar/data/
 
ZBHH 240600Z 24007MPS CAVOK 11/M16 Q1012 NOSIG
TAF ZBHH 240310Z 2406/2506 26004MPS CAVOK TX09/2407Z TNM07/23Z
       
ZGGG 240630Z 35003MPS 320V030 9999 -RA SCT013 OVC026 14/11 Q1017 BECMG AT0640 SHRA
TAF ZGGG 240310Z 2406/2506 02004MPS 8000 FEW010 OVC030 TX18/2407Z TN13/2422Z 
     TEMPO 2406/2412 4000 SHRA SCT010 FEW030CB BKN033 
     TEMPO 2422/2504 30008G15MPS 2000 TSRA SCT010 SCT030CB BKN033
       
ZGSZ 240600Z 02003MPS 8000 -SHRA SCT013 OVC027 17/14 Q1017 NOSIG
TAF ZGSZ 240328Z 2406/2506 06004MPS 6000 SCT015 OVC033 TX20/2406Z TN15/2421Z 
     TEMPO 2500/2506 3000 SHRA SCT010 FEW020CB OVC030
       
ZBTJ 240630Z 23007MPS CAVOK 20/M11 Q1011 NOSIG
TAF ZBTJ 240252Z 2406/2506 23005MPS 5000 HZ NSC TX18/2406Z TN05/2421Z
       
ZBAA 240630Z 20007MPS 160V230 CAVOK 20/M13 Q1009 NOSIG
TAF ZBAA 240330Z 2406/2506 24006G12MPS CAVOK TX20/2407Z TN03/2421Z 
     BECMG 2412/2413 33004MPS
       
ZSFZ 240600Z 01004MPS 330V040 9999 OVC030 13/06 Q1021 NOSIG
TAF ZSFZ 240315Z 2406/2506 04005MPS 6000 BKN030 TX14/2406Z TN11/2421Z 
     BECMG 2415/2416 34003MPS 
     TEMPO 2415/2421 2900 -RA BKN011 OVC025
       
ZYCC 240600Z 25008G14MPS CAVOK 08/M07 Q1003 NOSIG
TAF ZYCC 240303Z 2406/2506 25008G16MPS 6000 NSC TX08/2406Z TNM02/21Z
       
ZWWW 240630Z 03003MPS 330V080 CAVOK 14/M02 Q1018 NOSIG
TAF ZWWW 240304Z 2406/2506 36003MPS CAVOK TX12/2409Z TN04/2423Z 
     BECMG 2413/2414 18003MPS
       
ZSAM 240600Z 04005MPS 9999 OVC040 16/11 Q1019 NOSIG
TAF ZSAM 240310Z 2406/2506 05004G11MPS 6000 BKN030 TX18/2406Z TN14/2421Z 
     TEMPO 2406/2412 SHRA SCT010 FEW026CB BKN030
       
ZSSS 240630Z 17004MPS CAVOK 15/03 Q1021 NOSIG
TAF ZSSS 240308Z 2406/2506 16004MPS 6000 SCT020 TX16/2406Z TN07/2421Z
       
ZGHA 240600Z 32003MPS 290V350 6000 FEW011 BKN030 OVC050 11/08 Q1021 NOSIG
TAF ZGHA 240208Z 2406/2506 02003MPS 3500 BR SCT011 BKN050 TX13/2406Z TN06/2422Z 
     BECMG 2420/2421 1100 
     BECMG 2501/2502 3500
       
ZUCK 240600Z 02003MPS 350V050 7000 -RA FEW006 SCT011 OVC033 10/09 Q1019 NOSIG
TAF ZUCK 240304Z 2406/2506 06003MPS 5000 BR SCT016 TX16/2505Z TN09/2422Z
       
ZWSH 240600Z VRB01MPS 1800 DU NSC 15/M16 Q1019 NOSIG
TAF ZWSH 240312Z 2406/2506 06004MPS 2500 DU SCT040 TX16/2409Z TN08/2500Z 
     BECMG 2413/2414 32004MPS 3100
       
ZGKL 240600Z VRB01MPS 7000 OVC036 12/07 Q1019 NOSIG
TAF ZGKL 240314Z 2406/2506 05003MPS 3500 BR SCT030 OVC040 TX13/2408Z TN08/2422Z 
     BECMG 2409/2410 2500 -RA BR 
     TEMPO 2411/2416 -TSRA FEW011 SCT020 FEW030CB BKN030
       
ZSNB 240600Z VRB03G08MPS 9000 NSC 16/03 Q1021 NOSIG
TAF ZSNB 240211Z 2406/2506 16004MPS 3500 BR SCT030 TX17/2406Z TN08/2421Z 
     BECMG 2411/2412 2800 -RA BR 
     BECMG 2412/2413 3000 -RA BR
       
ZSQD 240600Z 19007MPS CAVOK 13/02 Q1017 NOSIG
TAF ZSQD 240310Z 2406/2506 19004MPS CAVOK TX14/2406Z TN05/2421Z
       
ZSNJ 240600Z 15003MPS CAVOK 16/M00 Q1020 NOSIG
TAF ZSNJ 240303Z 2406/2506 16004MPS 3000 HZ NSC TX20/2406Z TN08/2422Z
       
ZSOF 240600Z 16002MPS 090V240 CAVOK 17/01 Q1018 NOSIG
TAF ZSOF 240301Z 2406/2506 17003MPS 5000 HZ NSC TX15/2407Z TN05/2422Z
       
ZJHK 240600Z 10005MPS 9999 BKN015 BKN030 28/23 Q1013 NOSIG
TAF ZJHK 240306Z 2406/2506 07004MPS 5000 BR BKN010 BKN033 TX26/2407Z TN21/2421Z
       
ZJSY 240600Z 15005MPS 130V220 9999 FEW015 29/23 Q1012 NOSIG
TAF ZJSY 240330Z 2406/2506 10004MPS 9999 SCT020 TX31/2406Z TN24/2421Z
       
ZSPD 240630Z 11006MPS 090V220 CAVOK 13/04 Q1022 NOSIG
TAF ZSPD 240322Z 2406/2506 15004MPS 6000 BKN015 TX16/2406Z TN09/2421Z
       
ZUUU 240600Z VRB01MPS 9999 FEW020TCU SCT020 14/07 Q1018 NOSIG
TAF ZUUU 240214Z 2406/2506 36003MPS 5000 BR SCT050 TX16/2407Z TN08/2423Z 
     BECMG 2422/2423 2000 
     BECMG 2501/2502 3000
       
ZYHB 240600Z 25008MPS CAVOK 11/M09 Q0998 NOSIG
TAF ZYHB 240305Z 2406/2506 23008G14MPS 6000 FEW033 TX09/2406Z TNM04/21Z 
     BECMG 2407/2409 26003MPS
       
ZYTX 240630Z 22010G16MPS 5000 SA NSC 12/M07 Q1007 NOSIG
TAF ZYTX 240225Z 2406/2506 22009G15MPS CAVOK TX15/2406Z TN01/2421Z 
     BECMG 2409/2410 18004MPS 
     BECMG 2500/2501 22008MPS
       
ZHHH 240600Z VRB02MPS 5000 HZ NSC 14/05 Q1019 NOSIG
TAF ZHHH 240304Z 2406/2506 16003MPS 3000 BR NSC TX17/2406Z TN08/2422Z
       
ZPPP 240600Z 23013G18MPS 9999 SCT026 19/01 Q1018 NOSIG
TAF ZPPP 240116Z 2406/2506 22010G15MPS 9999 SCT030 TX20/2408Z TN07/2423Z 
     BECMG 2412/2413 22004MPS
       
ZBYN 240630Z 23003MPS 160V260 CAVOK 16/M14 Q1013 NOSIG
TAF ZBYN 240304Z 2406/2506 21004MPS 6000 NSC TX15/2407Z TNM02/22Z
       
ZGNN 240600Z VRB01MPS 9999 SCT013 OVC033 14/11 Q1017 NOSIG
TAF ZGNN 240305Z 2406/2506 09003MPS 7000 SCT010 OVC030 TX17/2406Z TN12/2422Z
       
ZLXY 240600Z VRB02MPS CAVOK 17/M05 Q1015 NOSIG
TAF ZLXY 240307Z 2406/2506 24003MPS 3000 HZ NSC TX20/2408Z TN08/2423Z
       
ZSHC 240630Z 08004MPS 050V140 CAVOK 17/03 Q1020 NOSIG
TAF ZSHC 240302Z 2406/2506 10003MPS 3000 BR SCT030 TX17/2407Z TN10/2421Z 
     TEMPO 2419/2501 2800 -RA BR
       
ZHCC 240600Z 19006MPS 160V220 7000 NSC 18/M00 Q1016 NOSIG
TAF ZHCC 240303Z 2406/2506 18003MPS 5000 HZ NSC TX18/2407Z TN07/2422Z
       
ZBSJ 240600Z 17004MPS CAVOK 19/M07 Q1012 NOSIG
TAF ZBSJ 240102Z 2406/2506 18004MPS CAVOK TX20/2407Z TN05/2421Z
       
ZLLL 240600Z VRB02MPS 9999 FEW023 10/M10 Q1017 NOSIG
TAF ZLLL 240303Z 2406/2506 12003MPS 6000 NSC TX14/2409Z TNM05/23Z 
     TEMPO 2406/2412 SCT023 FEW033CB
       
ZYTL 240630Z 23007G13MPS CAVOK 13/M06 Q1013 NOSIG
TAF ZYTL 240314Z 2406/2506 24006G12MPS CAVOK TX13/2406Z TN05/2420Z